< < Back
Terminal Aerodrome Forecast


Current Version              Previous Versions:   1  2  3  4  5  6  7  8  9  

Terminal Aerodrome Forecast

016
FTUS44 KBMX 060520
TAFTCL
TAF
KTCL 060520Z 0606/0706 00000KT P6SM SKC
      TEMPO 0607/0611 4SM BR
     FM061500 12007KT P6SM SCT250
     FM070000 00000KT P6SM SKC=



Latest METAR

837
SAUS70 KWBC 070000 RRH
MTRTCL
METAR KTCL 062353Z 14005KT 10SM CLR 26/13 A3007 RMK AO2 SLP180 T02610133
10289 20261 56006


USA.gov is the U.S. government's official web portal to all federal, state and local government web resources and services.